createdAt,value
2022-08-24T00:02:20.844Z,8.40
2022-08-24T00:04:52.127Z,8.20
2022-08-24T00:07:27.855Z,6.00
2022-08-24T00:09:55.231Z,7.80
2022-08-24T00:12:25.649Z,9.40
2022-08-24T00:14:56.640Z,3.60
2022-08-24T00:17:27.182Z,9.80
2022-08-24T00:19:57.703Z,7.40
2022-08-24T00:22:28.260Z,7.00
2022-08-24T00:24:58.862Z,6.00
2022-08-24T00:27:29.386Z,7.40
2022-08-24T00:30:00.204Z,6.80
2022-08-24T00:32:31.198Z,7.00
2022-08-24T00:35:01.690Z,9.40
2022-08-24T00:37:32.342Z,4.60
2022-08-24T00:40:04.658Z,6.40
2022-08-24T00:42:35.330Z,7.40
2022-08-24T00:45:08.712Z,8.00
2022-08-24T00:48:00.349Z,9.60
2022-08-24T00:50:41.110Z,10.20
2022-08-24T00:53:14.423Z,11.20
2022-08-24T00:55:47.749Z,9.20
2022-08-24T00:58:22.059Z,10.40
2022-08-24T01:00:58.662Z,8.20
2022-08-24T01:03:30.247Z,8.40
2022-08-24T01:06:01.109Z,9.60
2022-08-24T01:08:32.072Z,7.80
2022-08-24T01:11:06.161Z,8.60
2022-08-24T01:13:36.727Z,9.00
2022-08-24T01:16:09.008Z,11.20
2022-08-24T01:18:40.531Z,10.80
2022-08-24T01:21:26.243Z,8.00
2022-08-24T01:26:52.647Z,10.00
2022-08-24T01:29:26.174Z,8.80
2022-08-24T01:31:57.155Z,9.00
2022-08-24T01:34:28.175Z,7.80
2022-08-24T01:36:59.794Z,9.80
2022-08-24T01:39:33.291Z,9.00
2022-08-24T01:42:04.774Z,9.80
2022-08-24T01:44:38.254Z,10.60
2022-08-24T01:47:11.409Z,7.40
2022-08-24T01:49:45.321Z,8.40
2022-08-24T01:52:18.801Z,6.80
2022-08-24T01:54:49.480Z,10.00
2022-08-24T01:57:20.594Z,9.80
2022-08-24T01:59:53.885Z,9.60
2022-08-24T02:02:27.657Z,11.80
2022-08-24T02:04:58.604Z,10.00
2022-08-24T02:07:29.071Z,9.80
2022-08-24T02:09:59.821Z,10.00
2022-08-24T02:12:30.355Z,11.20
2022-08-24T02:15:00.952Z,9.80
2022-08-24T02:17:31.979Z,8.00
2022-08-24T02:20:03.054Z,10.40
2022-08-24T02:22:34.026Z,7.00
2022-08-24T02:25:04.969Z,7.60
2022-08-24T02:27:35.651Z,7.80
2022-08-24T02:30:07.823Z,11.20
2022-08-24T02:32:38.193Z,47.00
2022-08-24T02:35:09.525Z,15.75
2022-08-24T02:37:43.249Z,17.40
2022-08-24T02:40:13.180Z,11.20
2022-08-24T02:42:43.656Z,10.00
2022-08-24T02:45:14.262Z,7.00
2022-08-24T02:47:45.257Z,10.00
2022-08-24T02:50:17.803Z,9.80
2022-08-24T02:52:48.758Z,8.40
2022-08-24T02:55:20.567Z,10.80
2022-08-24T02:57:51.313Z,8.60
2022-08-24T03:00:24.192Z,6.00
2022-08-24T03:02:57.357Z,9.20
2022-08-24T03:05:30.066Z,8.00
2022-08-24T03:08:01.372Z,9.00
2022-08-24T03:10:32.060Z,8.20
2022-08-24T03:13:02.778Z,8.40
2022-08-24T03:15:33.693Z,8.80
2022-08-24T03:18:04.610Z,10.40
2022-08-24T03:20:35.561Z,8.00
2022-08-24T03:23:06.551Z,9.20
2022-08-24T03:25:37.752Z,7.60
2022-08-24T03:28:11.055Z,10.60
2022-08-24T03:30:42.212Z,9.00
2022-08-24T03:33:14.661Z,7.40
2022-08-24T03:35:45.785Z,10.40
2022-08-24T03:38:16.500Z,7.40
2022-08-24T03:40:47.008Z,9.00
2022-08-24T03:43:18.077Z,8.60
2022-08-24T03:45:51.684Z,8.40
2022-08-24T03:48:22.253Z,7.40
2022-08-24T03:50:52.925Z,7.00
2022-08-24T03:53:23.885Z,8.20
2022-08-24T03:55:54.350Z,6.40
2022-08-24T03:58:24.915Z,6.80
2022-08-24T04:00:57.332Z,9.40
2022-08-24T04:03:27.846Z,8.00
2022-08-24T04:05:59.982Z,8.00
2022-08-24T04:08:31.492Z,6.60
2022-08-24T04:11:02.678Z,7.00
2022-08-24T04:13:33.167Z,5.80
2022-08-24T04:16:09.329Z,7.20
2022-08-24T04:18:40.637Z,7.80
2022-08-24T04:21:19.793Z,6.20
2022-08-24T04:23:51.475Z,7.80
2022-08-24T04:26:43.914Z,7.60
2022-08-24T04:28:57.108Z,1.00
2022-08-24T04:31:28.612Z,8.00
2022-08-24T04:33:59.466Z,8.20
2022-08-24T04:36:30.007Z,6.00
2022-08-24T04:39:01.434Z,7.00
2022-08-24T04:41:32.018Z,5.60
2022-08-24T04:44:03.904Z,3.80
2022-08-24T04:46:35.108Z,7.00
2022-08-24T04:49:05.696Z,4.80
2022-08-24T04:51:37.904Z,5.60
2022-08-24T04:54:09.272Z,5.80
2022-08-24T04:56:40.047Z,7.60
2022-08-24T04:59:10.552Z,8.60
2022-08-24T05:01:42.580Z,5.00
2022-08-24T05:04:13.461Z,0.00
2022-08-24T05:06:45.395Z,5.50
2022-08-24T05:09:15.888Z,6.00
2022-08-24T05:11:50.042Z,5.80
2022-08-24T05:14:26.724Z,6.40
2022-08-24T05:16:58.864Z,3.20
2022-08-24T05:19:29.580Z,4.40
2022-08-24T05:22:00.887Z,4.20
2022-08-24T05:24:31.803Z,4.20
2022-08-24T05:27:02.464Z,6.60
2022-08-24T05:29:33.350Z,4.20
2022-08-24T05:32:05.234Z,4.40
2022-08-24T05:34:36.155Z,5.60
2022-08-24T05:37:06.523Z,7.00
2022-08-24T05:39:37.412Z,5.80
2022-08-24T05:42:07.896Z,4.60
2022-08-24T05:44:38.537Z,4.80
2022-08-24T05:47:12.128Z,4.80
2022-08-24T05:49:42.805Z,3.40
2022-08-24T05:52:13.641Z,4.00
2022-08-24T05:54:44.173Z,6.60
2022-08-24T05:57:14.502Z,4.80
2022-08-24T05:59:45.132Z,4.60
2022-08-24T06:02:16.480Z,5.60
2022-08-24T06:04:47.992Z,5.00
2022-08-24T06:07:19.239Z,3.00
2022-08-24T06:09:49.642Z,5.00
2022-08-24T06:12:21.175Z,2.00
2022-08-24T06:14:51.797Z,3.80
2022-08-24T06:17:22.484Z,4.00
2022-08-24T06:19:54.696Z,3.40
2022-08-24T06:22:28.228Z,3.40
2022-08-24T06:24:59.226Z,3.60
2022-08-24T06:27:30.430Z,4.00
2022-08-24T06:30:06.659Z,4.60
2022-08-24T06:32:38.055Z,4.40
2022-08-24T06:35:11.510Z,3.00
2022-08-24T06:37:42.387Z,4.00
2022-08-24T06:40:13.116Z,3.80
2022-08-24T06:42:43.843Z,5.20
2022-08-24T06:45:14.473Z,3.00
2022-08-24T06:47:45.981Z,4.00
2022-08-24T06:50:16.606Z,6.00
2022-08-24T06:52:49.976Z,4.80
2022-08-24T06:55:20.462Z,3.80
2022-08-24T06:57:52.619Z,2.60
2022-08-24T07:00:23.777Z,3.00
2022-08-24T07:02:55.500Z,2.80
2022-08-24T07:05:26.153Z,3.00
2022-08-24T07:07:57.001Z,1.60
2022-08-24T07:10:28.990Z,4.60
2022-08-24T07:12:59.964Z,3.60
2022-08-24T07:15:30.910Z,0.60
2022-08-24T07:18:01.576Z,3.60
2022-08-24T07:20:32.412Z,4.00
2022-08-24T07:23:06.021Z,3.00
2022-08-24T07:25:36.712Z,4.60
2022-08-24T07:28:10.135Z,4.00
2022-08-24T07:30:43.918Z,2.00
2022-08-24T07:33:14.419Z,3.80
2022-08-24T07:35:44.824Z,3.60
2022-08-24T07:38:15.422Z,4.60
2022-08-24T07:41:05.461Z,3.00
2022-08-24T07:43:19.835Z,0.60
2022-08-24T07:45:51.192Z,2.60
2022-08-24T07:48:21.884Z,4.20
2022-08-24T07:50:52.549Z,4.40
2022-08-24T07:53:27.941Z,3.60
2022-08-24T07:55:57.645Z,3.00
2022-08-24T07:58:29.165Z,4.20
2022-08-24T08:01:00.598Z,3.80
2022-08-24T08:03:31.964Z,2.80
2022-08-24T08:06:06.269Z,3.20
2022-08-24T08:08:41.342Z,3.20
2022-08-24T08:11:13.109Z,5.00
2022-08-24T08:13:44.919Z,2.00
2022-08-24T08:16:17.119Z,3.40
2022-08-24T08:18:52.348Z,3.40
2022-08-24T08:21:20.473Z,3.00
2022-08-24T08:23:51.207Z,0.40
2022-08-24T08:26:22.176Z,4.80
2022-08-24T08:28:52.894Z,2.20
2022-08-24T08:31:23.476Z,3.80
2022-08-24T08:33:54.036Z,0.60
2022-08-24T08:36:24.710Z,2.60
2022-08-24T08:38:57.772Z,10.20
2022-08-24T08:41:37.388Z,4.00
2022-08-24T08:47:22.079Z,5.60
2022-08-24T08:50:16.890Z,4.00
2022-08-24T08:53:13.892Z,4.40
2022-08-24T08:56:11.627Z,2.40
2022-08-24T08:58:53.794Z,4.00
2022-08-24T09:01:47.154Z,3.40
2022-08-24T09:04:36.821Z,5.00
2022-08-24T09:07:14.371Z,3.60
2022-08-24T09:10:02.319Z,4.60
2022-08-24T09:12:38.320Z,4.80
2022-08-24T09:15:45.183Z,5.40
2022-08-24T09:18:31.143Z,2.80
2022-08-24T09:21:07.639Z,4.20
2022-08-24T09:24:09.392Z,3.80
2022-08-24T09:27:18.458Z,3.00
2022-08-24T09:30:07.537Z,3.00
2022-08-24T09:32:55.172Z,2.20
2022-08-24T09:35:35.744Z,4.00
2022-08-24T09:38:33.250Z,4.40
2022-08-24T09:41:14.036Z,3.00
2022-08-24T09:44:05.841Z,3.20
2022-08-24T09:47:14.630Z,2.00
2022-08-24T09:50:05.952Z,3.60
2022-08-24T09:53:13.465Z,4.20
2022-08-24T09:56:03.460Z,4.60
2022-08-24T09:59:03.927Z,3.80
2022-08-24T10:01:43.666Z,4.80
2022-08-24T10:04:37.700Z,4.00
2022-08-24T10:07:20.080Z,4.40
2022-08-24T10:10:00.180Z,2.20
2022-08-24T10:12:36.128Z,3.40
2022-08-24T10:18:14.658Z,4.00
2022-08-24T10:21:04.772Z,5.00
2022-08-24T10:23:59.260Z,2.60
2022-08-24T10:26:35.278Z,5.00
2022-08-24T10:29:24.050Z,4.00
2022-08-24T10:32:06.504Z,4.80
2022-08-24T10:38:01.192Z,7.20
2022-08-24T10:40:37.861Z,5.80
2022-08-24T10:43:30.500Z,5.00
2022-08-24T10:46:13.198Z,4.80
2022-08-24T10:49:03.073Z,4.80
2022-08-24T10:51:58.922Z,6.20
2022-08-24T10:54:32.651Z,4.20
2022-08-24T10:57:12.463Z,5.60
2022-08-24T10:59:48.064Z,3.80
2022-08-24T11:02:37.146Z,1.40
2022-08-24T11:05:11.021Z,5.00
2022-08-24T11:07:59.826Z,4.20
2022-08-24T11:10:36.311Z,4.60
2022-08-24T11:13:25.799Z,3.40
2022-08-24T11:15:59.429Z,4.00
2022-08-24T11:18:50.085Z,4.00
2022-08-24T11:21:41.457Z,3.60
2022-08-24T11:24:29.674Z,4.00
2022-08-24T11:27:08.943Z,4.20
2022-08-24T11:29:54.645Z,5.00
2022-08-24T11:32:45.219Z,5.40
2022-08-24T11:35:36.964Z,5.00
2022-08-24T11:38:29.836Z,5.00
2022-08-24T11:41:22.774Z,3.20
2022-08-24T11:44:06.695Z,4.00
2022-08-24T11:46:44.875Z,5.40
2022-08-24T11:49:46.237Z,3.80
2022-08-24T11:55:45.384Z,4.60
2022-08-24T11:58:20.840Z,5.20
2022-08-24T12:01:00.150Z,5.00
2022-08-24T12:03:53.685Z,4.80
2022-08-24T12:06:58.789Z,3.00
2022-08-24T12:09:36.751Z,4.40
2022-08-24T12:12:43.007Z,4.40
2022-08-24T12:15:25.219Z,5.00
2022-08-24T12:18:13.340Z,4.80
2022-08-24T12:20:48.400Z,6.20
2022-08-24T12:23:39.911Z,7.00
2022-08-24T12:26:28.178Z,5.00
2022-08-24T12:29:05.142Z,3.80
2022-08-24T12:31:49.063Z,4.40
2022-08-24T12:34:36.403Z,5.00
2022-08-24T12:37:29.486Z,4.00
2022-08-24T12:40:05.714Z,4.80
2022-08-24T12:42:46.571Z,4.00
2022-08-24T12:45:19.662Z,5.20
2022-08-24T12:47:59.055Z,2.40
2022-08-24T12:50:32.882Z,5.20
2022-08-24T12:53:13.613Z,5.20
2022-08-24T12:55:54.677Z,2.60
2022-08-24T12:58:53.781Z,4.20
2022-08-24T13:01:17.131Z,5.00
2022-08-24T13:03:51.151Z,5.80
2022-08-24T13:06:30.994Z,5.20
2022-08-24T13:09:10.815Z,5.00
2022-08-24T13:11:43.691Z,8.00
2022-08-24T13:14:19.780Z,6.60
2022-08-24T13:16:59.657Z,4.80
2022-08-24T13:19:36.723Z,5.00
2022-08-24T13:22:14.702Z,5.00
2022-08-24T13:24:59.969Z,6.80
2022-08-24T13:27:43.413Z,4.00
2022-08-24T13:33:21.084Z,7.20
2022-08-24T13:35:57.955Z,4.60
2022-08-24T13:38:42.550Z,4.40
2022-08-24T13:41:18.592Z,6.00
2022-08-24T13:44:03.729Z,5.40
2022-08-24T13:46:47.692Z,5.00
2022-08-24T13:49:27.301Z,4.00
2022-08-24T13:52:15.692Z,4.80
2022-08-24T13:55:13.581Z,5.00
2022-08-24T13:58:21.176Z,3.00
2022-08-24T14:01:09.731Z,4.00
2022-08-24T14:03:52.198Z,4.00
2022-08-24T14:06:25.428Z,1.60
2022-08-24T14:09:17.702Z,3.40
2022-08-24T14:12:08.961Z,1.80
2022-08-24T14:14:47.769Z,5.00
2022-08-24T14:17:35.782Z,5.00
2022-08-24T14:20:24.410Z,7.20
2022-08-24T14:23:23.087Z,1.80
2022-08-24T14:26:14.025Z,4.40
2022-08-24T14:28:45.663Z,5.20
2022-08-24T14:31:25.250Z,3.60
2022-08-24T14:34:24.190Z,5.60
2022-08-24T14:37:19.608Z,4.20
2022-08-24T14:40:15.580Z,5.60
2022-08-24T14:43:01.281Z,4.00
2022-08-24T14:45:46.537Z,4.80
2022-08-24T14:48:19.950Z,6.60
2022-08-24T14:51:16.854Z,6.80
2022-08-24T14:54:06.563Z,5.80
2022-08-24T14:56:52.651Z,6.20
2022-08-24T14:59:26.169Z,7.20
2022-08-24T15:02:16.514Z,7.00
2022-08-24T15:04:57.751Z,6.40
2022-08-24T15:07:32.859Z,7.20
2022-08-24T15:10:07.278Z,4.80
2022-08-24T15:12:42.435Z,7.40
2022-08-24T15:15:34.167Z,8.60
2022-08-24T15:18:20.535Z,7.00
2022-08-24T15:20:59.672Z,12.00
2022-08-24T15:23:41.943Z,8.80
2022-08-24T15:26:15.425Z,9.40
2022-08-24T15:28:56.316Z,8.40
2022-08-24T15:31:26.962Z,8.80
2022-08-24T15:34:00.336Z,10.20
2022-08-24T15:36:33.498Z,7.40
2022-08-24T15:39:06.345Z,7.60
2022-08-24T15:41:41.949Z,7.40
2022-08-24T15:44:20.625Z,7.20
2022-08-24T15:46:59.537Z,7.40
2022-08-24T15:49:35.647Z,10.80
2022-08-24T15:52:12.659Z,9.20
2022-08-24T15:54:46.197Z,7.40
2022-08-24T15:57:22.539Z,10.80
2022-08-24T15:59:55.389Z,7.00
2022-08-24T16:02:29.258Z,7.20
2022-08-24T16:05:21.289Z,96.20
2022-08-24T16:08:07.652Z,38.00
2022-08-24T16:10:41.561Z,20.40
2022-08-24T16:13:26.002Z,17.40
2022-08-24T16:16:02.805Z,13.60
2022-08-24T16:18:54.389Z,11.60
2022-08-24T16:24:43.244Z,8.60
2022-08-24T16:27:17.920Z,9.20
2022-08-24T16:29:52.395Z,8.60
2022-08-24T16:32:49.773Z,8.40
2022-08-24T16:35:11.613Z,9.00
2022-08-24T16:37:45.235Z,8.20
2022-08-24T16:40:16.366Z,9.40
2022-08-24T16:42:48.441Z,8.60
2022-08-24T16:45:21.470Z,7.80
2022-08-24T16:47:53.103Z,9.20
2022-08-24T16:50:27.300Z,11.40
2022-08-24T16:52:56.587Z,8.40
2022-08-24T16:55:27.730Z,6.80
2022-08-24T16:57:58.946Z,8.60
2022-08-24T17:00:29.683Z,6.80
2022-08-24T17:03:00.202Z,8.60
2022-08-24T17:05:30.716Z,7.00
2022-08-24T17:08:02.133Z,10.40
2022-08-24T17:10:37.741Z,9.20
2022-08-24T17:13:05.527Z,10.20
2022-08-24T17:15:37.006Z,11.60
2022-08-24T17:18:10.035Z,16.80
2022-08-24T17:20:41.928Z,16.60
2022-08-24T17:23:13.427Z,11.20
2022-08-24T17:25:43.907Z,17.80
2022-08-24T17:28:17.425Z,18.40
2022-08-24T17:30:51.330Z,20.80
2022-08-24T17:33:19.948Z,16.20
2022-08-24T17:35:55.501Z,13.80
2022-08-24T17:38:26.011Z,13.00
2022-08-24T17:40:57.425Z,12.80
2022-08-24T17:43:28.109Z,13.00
2022-08-24T17:45:58.735Z,13.80
2022-08-24T17:48:32.077Z,12.20
2022-08-24T17:51:03.412Z,13.60
2022-08-24T17:53:36.850Z,13.80
2022-08-24T17:56:17.175Z,13.80
2022-08-24T17:58:47.917Z,13.00
2022-08-24T18:01:19.030Z,13.40
2022-08-24T18:03:52.223Z,14.60
2022-08-24T18:06:24.925Z,13.00
2022-08-24T18:08:56.620Z,12.60
2022-08-24T18:11:27.261Z,15.00
2022-08-24T18:13:57.950Z,63.75
2022-08-24T18:16:29.471Z,39.50
2022-08-24T18:19:01.799Z,19.00
2022-08-24T18:21:33.016Z,14.40
2022-08-24T18:24:03.960Z,16.20
2022-08-24T18:26:35.373Z,17.60
2022-08-24T18:29:17.935Z,11.00
2022-08-24T18:31:52.715Z,9.80
2022-08-24T18:34:23.766Z,9.80
2022-08-24T18:36:55.696Z,8.80
2022-08-24T18:39:26.389Z,41.25
2022-08-24T18:41:59.053Z,18.00
2022-08-24T18:44:31.868Z,7.60
2022-08-24T18:47:04.400Z,7.20
2022-08-24T18:49:38.291Z,6.60
2022-08-24T18:52:12.076Z,10.20
2022-08-24T18:54:44.790Z,11.20
2022-08-24T18:57:40.661Z,15.60
2022-08-24T19:00:18.225Z,15.00
2022-08-24T19:02:48.778Z,16.60
2022-08-24T19:05:25.459Z,19.00
2022-08-24T19:08:04.222Z,18.00
2022-08-24T19:10:38.137Z,14.40
2022-08-24T19:13:13.561Z,17.00
2022-08-24T19:15:45.852Z,17.00
2022-08-24T19:18:24.853Z,18.60
2022-08-24T19:20:58.154Z,17.00
2022-08-24T19:23:32.180Z,18.60
2022-08-24T19:26:04.777Z,20.00
2022-08-24T19:28:39.384Z,18.00
2022-08-24T19:31:12.840Z,19.80
2022-08-24T19:33:49.806Z,18.00
2022-08-24T19:36:21.021Z,18.00
2022-08-24T19:38:51.635Z,17.80
2022-08-24T19:41:35.288Z,16.80
2022-08-24T19:44:06.413Z,16.60
2022-08-24T19:46:37.896Z,15.80
2022-08-24T19:49:09.880Z,19.60
2022-08-24T19:51:42.232Z,19.40
2022-08-24T19:54:12.878Z,19.80
2022-08-24T19:56:43.851Z,20.00
2022-08-24T19:59:30.124Z,19.80
2022-08-24T20:02:05.067Z,21.00
2022-08-24T20:04:35.893Z,20.20
2022-08-24T20:07:06.475Z,19.40
2022-08-24T20:09:37.238Z,19.60
2022-08-24T20:12:09.276Z,20.60
2022-08-24T20:14:41.104Z,18.40
2022-08-24T20:17:15.406Z,17.80
2022-08-24T20:19:48.637Z,18.40
2022-08-24T20:22:19.639Z,18.00
2022-08-24T20:24:50.402Z,18.80
2022-08-24T20:27:27.152Z,21.00
2022-08-24T20:29:57.911Z,19.60
2022-08-24T20:32:28.682Z,19.60
2022-08-24T20:34:59.104Z,8.80
2022-08-24T20:37:32.363Z,21.00
2022-08-24T20:40:04.339Z,20.00
2022-08-24T20:42:35.095Z,16.60
2022-08-24T20:45:08.337Z,18.60
2022-08-24T20:47:47.833Z,17.60
2022-08-24T20:50:21.752Z,18.40
2022-08-24T20:52:54.849Z,15.60
2022-08-24T20:55:26.491Z,16.60
2022-08-24T20:57:58.984Z,16.00
2022-08-24T21:00:30.507Z,17.20
2022-08-24T21:03:01.009Z,17.60
2022-08-24T21:05:31.770Z,16.20
2022-08-24T21:08:02.447Z,13.00
2022-08-24T21:10:37.008Z,18.00
2022-08-24T21:13:07.797Z,13.60
2022-08-24T21:15:39.181Z,17.60
2022-08-24T21:18:09.785Z,15.40
2022-08-24T21:20:44.651Z,17.60
2022-08-24T21:23:13.616Z,14.60
2022-08-24T21:25:44.191Z,12.00
2022-08-24T21:28:16.786Z,13.40
2022-08-24T21:30:48.069Z,14.80
2022-08-24T21:33:22.633Z,14.20
2022-08-24T21:35:51.680Z,14.40
2022-08-24T21:38:22.129Z,13.80
2022-08-24T21:40:53.168Z,0.00
2022-08-24T21:43:23.504Z,15.80
2022-08-24T21:45:55.174Z,14.00
2022-08-24T21:48:25.570Z,13.80
2022-08-24T21:50:56.154Z,15.80
2022-08-24T21:53:28.634Z,16.20
2022-08-24T21:56:01.228Z,17.00
2022-08-24T21:58:31.919Z,15.40
2022-08-24T22:01:02.796Z,10.80
2022-08-24T22:03:39.929Z,14.60
2022-08-24T22:06:07.957Z,13.80
2022-08-24T22:08:41.820Z,13.80
2022-08-24T22:11:15.230Z,16.60
2022-08-24T22:13:47.296Z,17.20
2022-08-24T22:16:20.118Z,13.60
2022-08-24T22:18:50.578Z,12.60
2022-08-24T22:21:23.726Z,13.60
2022-08-24T22:23:55.271Z,16.80
2022-08-24T22:26:28.807Z,14.40
2022-08-24T22:29:00.619Z,16.00
2022-08-24T22:31:33.957Z,18.20
2022-08-24T22:34:07.785Z,15.00
2022-08-24T22:36:38.821Z,4.20
2022-08-24T22:39:11.840Z,15.60
2022-08-24T22:41:42.742Z,16.20
2022-08-24T22:44:13.571Z,13.40
2022-08-24T22:46:44.495Z,1.00
2022-08-24T22:49:15.355Z,15.40
2022-08-24T22:51:46.147Z,15.40
2022-08-24T22:54:18.141Z,17.20
2022-08-24T22:56:52.115Z,13.40
2022-08-24T22:59:25.607Z,15.00
2022-08-24T23:01:57.633Z,11.80
2022-08-24T23:04:31.278Z,12.40
2022-08-24T23:07:05.694Z,12.00
2022-08-24T23:09:43.963Z,8.40
2022-08-24T23:12:13.284Z,9.40
2022-08-24T23:14:45.291Z,11.20
2022-08-24T23:17:15.843Z,11.00
2022-08-24T23:19:46.430Z,10.40
2022-08-24T23:22:19.429Z,8.80
2022-08-24T23:24:49.821Z,6.40
2022-08-24T23:27:20.398Z,8.00
2022-08-24T23:29:51.092Z,8.00
2022-08-24T23:32:21.736Z,4.20
2022-08-24T23:34:55.156Z,6.20
2022-08-24T23:37:25.998Z,5.80
2022-08-24T23:39:57.788Z,5.20
2022-08-24T23:42:28.340Z,6.00
2022-08-24T23:44:58.883Z,3.20
2022-08-24T23:47:30.495Z,8.80
2022-08-24T23:50:02.761Z,5.00
2022-08-24T23:52:35.558Z,8.60
2022-08-24T23:55:20.637Z,10.00
2022-08-24T23:57:38.842Z,11.60
